Time;durP1;ratioP1;P1;durP2;ratioP2;P2;SDS_P1;SDS_P2;PMS_P1;PMS_P2;Temp;Humidity;BMP_temperature;BMP_pressure;BME280_temperature;BME280_humidity;BME280_pressure;Samples;Min_cycle;Max_cycle;Signal;HPM_P1;HPM_P2
2023/08/07 00:00:40;;;;;;;20.05;4.30;;;;;;;11.99;100.00;101224.69;5063789;28;20025;-70
2023/08/07 00:03:05;;;;;;;21.63;4.32;;;;;;;12.01;100.00;101225.63;5061560;28;20123;-73
2023/08/07 00:05:31;;;;;;;21.23;4.10;;;;;;;12.06;100.00;101216.78;5062587;28;20063;-70
2023/08/07 00:07:56;;;;;;;20.75;4.10;;;;;;;12.05;100.00;101229.16;5063949;28;20135;-74
2023/08/07 00:10:22;;;;;;;21.00;4.43;;;;;;;12.07;100.00;101223.84;5061120;28;20112;-75
2023/08/07 00:12:47;;;;;;;20.38;4.43;;;;;;;12.09;100.00;101228.28;5057026;28;20021;-75
2023/08/07 00:15:13;;;;;;;20.55;4.20;;;;;;;12.02;100.00;101231.78;5063913;28;20033;-75
2023/08/07 00:17:38;;;;;;;20.27;4.20;;;;;;;12.01;100.00;101236.22;5062398;28;20111;-75
2023/08/07 00:20:05;;;;;;;18.83;4.15;;;;;;;12.01;100.00;101246.81;5062833;28;20029;-67
2023/08/07 00:22:30;;;;;;;18.48;4.10;;;;;;;11.98;100.00;101240.59;5063180;28;20097;-75
2023/08/07 00:24:56;;;;;;;20.95;4.30;;;;;;;12.00;100.00;101228.25;5061263;28;20049;-75
2023/08/07 00:27:21;;;;;;;20.95;4.28;;;;;;;11.98;100.00;101240.59;5064690;28;20387;-73
2023/08/07 00:29:46;;;;;;;18.73;3.80;;;;;;;11.95;100.00;101252.06;5060722;28;20056;-69
2023/08/07 00:32:12;;;;;;;19.10;4.00;;;;;;;11.91;100.00;101249.34;5063750;28;20029;-76
2023/08/07 00:34:37;;;;;;;18.25;4.03;;;;;;;11.85;100.00;101251.09;5062197;28;20064;-76
2023/08/07 00:37:02;;;;;;;19.95;4.35;;;;;;;11.80;100.00;101247.53;5062130;28;20033;-75
2023/08/07 00:39:28;;;;;;;19.65;4.53;;;;;;;11.73;100.00;101250.16;5063620;28;20471;-73
2023/08/07 00:41:53;;;;;;;18.55;4.18;;;;;;;11.69;100.00;101246.56;5060803;28;20021;-70
2023/08/07 00:44:19;;;;;;;20.50;4.25;;;;;;;11.68;100.00;101250.13;5064183;28;20033;-75
2023/08/07 00:46:44;;;;;;;19.73;3.88;;;;;;;11.73;100.00;101245.72;5061370;28;20112;-75
2023/08/07 00:49:11;;;;;;;20.20;3.85;;;;;;;11.80;100.00;101258.13;5063367;28;20037;-73
2023/08/07 00:51:39;;;;;;;17.98;3.70;;;;;;;11.77;100.00;101259.88;5062280;28;20040;-72
2023/08/07 00:54:05;;;;;;;19.83;3.58;;;;;;;11.79;100.00;101266.94;5062345;28;20155;-71
2023/08/07 00:56:31;;;;;;;19.90;3.75;;;;;;;11.82;100.00;101252.84;5061832;28;20115;-70
2023/08/07 00:59:00;;;;;;;18.58;3.58;;;;;;;11.77;100.00;101251.94;5059852;28;20040;-70
2023/08/07 01:01:27;;;;;;;16.55;3.60;;;;;;;11.83;100.00;101250.19;5063644;28;20564;-74
2023/08/07 01:03:52;;;;;;;16.85;3.40;;;;;;;11.78;100.00;101244.00;5060571;28;20480;-66
2023/08/07 01:06:17;;;;;;;17.50;4.20;;;;;;;11.80;100.00;101244.00;5063830;28;20044;-66
2023/08/07 01:08:44;;;;;;;18.88;3.80;;;;;;;11.81;100.00;101251.97;5061277;28;20040;-66
2023/08/07 01:11:37;;;;;;;19.63;3.63;;;;;;;11.77;100.00;101254.59;5062811;28;20033;-66
2023/08/07 01:14:30;;;;;;;19.40;3.80;;;;;;;11.79;100.00;101251.03;5059768;28;20036;-66
2023/08/07 01:17:13;;;;;;;20.00;3.80;;;;;;;11.72;100.00;101261.59;5058246;28;20437;-70
2023/08/07 01:19:39;;;;;;;;;;;;;;;11.74;100.00;101263.41;5062181;28;20025;-66
2023/08/07 01:22:12;;;;;;;18.60;4.05;;;;;;;11.71;100.00;101259.81;5062028;28;19913;-66
2023/08/07 01:24:39;;;;;;;18.35;3.78;;;;;;;11.69;100.00;101265.13;5064187;28;20048;-66
2023/08/07 01:27:17;;;;;;;19.80;4.18;;;;;;;11.71;100.00;101268.69;5065975;28;20036;-66
2023/08/07 01:29:51;;;;;;;19.35;4.10;;;;;;;11.65;100.00;101273.94;5064758;28;20029;-72
2023/08/07 01:32:40;;;;;;;20.50;4.30;;;;;;;11.60;100.00;101279.19;5067327;28;20025;-66
2023/08/07 01:35:08;;;;;;;19.55;4.43;;;;;;;11.58;100.00;101282.72;5023042;28;20123;-66
2023/08/07 01:37:38;;;;;;;19.20;4.15;;;;;;;11.56;100.00;101276.50;5065981;28;20036;-81
2023/08/07 01:40:06;;;;;;;19.02;4.25;;;;;;;11.54;100.00;101286.22;5065177;28;20035;-66
2023/08/07 01:42:32;;;;;;;18.50;4.07;;;;;;;11.63;100.00;101271.25;5066363;28;20028;-72
2023/08/07 01:44:58;;;;;;;21.85;4.70;;;;;;;11.68;100.00;101268.66;5063064;28;20468;-66
2023/08/07 01:47:23;;;;;;;18.20;3.97;;;;;;;11.65;100.00;101273.94;5067183;28;20395;-67
2023/08/07 01:49:48;;;;;;;18.58;4.20;;;;;;;11.74;100.00;101268.69;5063909;28;20086;-66
2023/08/07 01:52:14;;;;;;;20.13;4.05;;;;;;;11.78;100.00;101264.28;5066408;28;20029;-66
2023/08/07 01:54:39;;;;;;;18.02;4.38;;;;;;;11.62;100.00;101263.31;5065108;28;20020;-66
2023/08/07 01:57:05;;;;;;;18.40;4.00;;;;;;;11.61;100.00;101270.38;5065218;28;20037;-66
2023/08/07 01:59:30;;;;;;;18.75;3.60;;;;;;;11.51;100.00;101266.75;5066108;28;20094;-76
2023/08/07 02:01:56;;;;;;;16.25;3.45;;;;;;;11.58;100.00;101277.41;5064110;28;20044;-66
2023/08/07 02:04:21;;;;;;;19.33;3.88;;;;;;;11.56;100.00;101289.75;5066869;28;20115;-66
2023/08/07 02:06:47;;;;;;;19.67;3.90;;;;;;;11.49;100.00;101280.88;5063648;28;20064;-66
2023/08/07 02:09:12;;;;;;;18.83;3.90;;;;;;;11.47;100.00;101285.25;5066076;28;20029;-66
2023/08/07 02:11:37;;;;;;;19.30;3.85;;;;;;;11.46;100.00;101281.75;5064875;28;20100;-66
2023/08/07 02:14:03;;;;;;;18.27;4.07;;;;;;;11.49;100.00;101289.72;5064646;28;20060;-66
2023/08/07 02:16:28;;;;;;;18.45;3.90;;;;;;;11.58;100.00;101293.31;5066408;28;20043;-66
2023/08/07 02:18:53;;;;;;;17.48;4.05;;;;;;;11.55;100.00;101291.50;5063267;28;20166;-66
2023/08/07 02:21:19;;;;;;;19.38;4.20;;;;;;;11.54;100.00;101297.69;5066672;28;20119;-66
2023/08/07 02:23:44;;;;;;;17.52;3.83;;;;;;;11.60;100.00;101288.91;5063661;28;20503;-66
2023/08/07 02:26:09;;;;;;;21.20;4.38;;;;;;;11.57;100.00;101294.16;5065321;28;20037;-66
2023/08/07 02:28:35;;;;;;;20.23;3.92;;;;;;;11.51;100.00;101289.72;5064948;28;20070;-66
2023/08/07 02:31:00;;;;;;;18.55;3.80;;;;;;;11.55;100.00;101288.88;5063779;28;20036;-66
2023/08/07 02:33:25;;;;;;;18.42;4.25;;;;;;;11.55;100.00;101286.22;5066326;28;20064;-66
2023/08/07 02:35:51;;;;;;;19.75;4.28;;;;;;;11.51;100.00;101293.25;5063150;28;20048;-66
2023/08/07 02:38:16;;;;;;;20.83;4.45;;;;;;;11.54;100.00;101284.44;5065958;28;20028;-73
2023/08/07 02:40:43;;;;;;;20.95;4.07;;;;;;;11.49;100.00;101284.41;5063688;28;20234;-66
2023/08/07 02:43:08;;;;;;;16.75;4.03;;;;;;;11.48;100.00;101282.63;5064877;28;20024;-66
2023/08/07 02:45:34;;;;;;;19.45;4.20;;;;;;;11.51;100.00;101287.06;5064800;28;20383;-66
2023/08/07 02:48:00;;;;;;;18.50;4.40;;;;;;;11.52;100.00;101280.91;5063371;28;20017;-66
2023/08/07 02:50:27;;;;;;;20.85;4.72;;;;;;;11.50;100.00;101282.63;5066001;28;20137;-67
2023/08/07 02:52:53;;;;;;;21.08;4.82;;;;;;;11.50;100.00;101282.63;5062540;28;20029;-66
2023/08/07 02:55:18;;;;;;;20.38;4.60;;;;;;;11.56;100.00;101273.84;5065738;28;20032;-66
2023/08/07 02:57:43;;;;;;;19.30;4.70;;;;;;;11.54;100.00;101272.97;5063427;28;20037;-66
2023/08/07 03:00:09;;;;;;;21.08;4.65;;;;;;;11.56;100.00;101276.50;5064458;28;20020;-72
2023/08/07 03:02:35;;;;;;;20.45;4.75;;;;;;;11.57;100.00;101283.59;5064334;28;20035;-66
2023/08/07 03:05:00;;;;;;;20.88;4.70;;;;;;;11.59;100.00;101301.25;5063457;28;20029;-66
2023/08/07 03:07:25;;;;;;;20.73;4.63;;;;;;;11.59;100.00;101303.00;5065428;28;20033;-66
2023/08/07 03:09:51;;;;;;;21.00;5.00;;;;;;;11.60;100.00;101302.13;5062701;28;20078;-66
2023/08/07 03:12:16;;;;;;;20.13;4.75;;;;;;;11.56;100.00;101305.63;5065184;28;20028;-66
2023/08/07 03:14:41;;;;;;;21.00;4.55;;;;;;;11.56;100.00;101295.91;5063176;28;20056;-66
2023/08/07 03:17:07;;;;;;;20.52;4.47;;;;;;;11.54;100.00;101291.50;5064009;28;20025;-66
2023/08/07 03:19:32;;;;;;;21.92;4.57;;;;;;;11.58;100.00;101294.19;5064238;28;20467;-66
2023/08/07 03:21:57;;;;;;;21.30;4.40;;;;;;;11.55;100.00;101290.59;5062505;28;20044;-66
2023/08/07 03:24:23;;;;;;;20.42;4.53;;;;;;;11.57;100.00;101275.63;5065411;28;20514;-66
2023/08/07 03:26:49;;;;;;;21.02;4.55;;;;;;;11.56;100.00;101273.84;5061973;28;20463;-66
2023/08/07 03:29:14;;;;;;;20.58;4.60;;;;;;;11.57;100.00;101271.22;5064445;28;20111;-66
2023/08/07 03:31:39;;;;;;;20.13;4.40;;;;;;;11.61;100.00;101269.50;5063252;28;20380;-66
2023/08/07 03:34:05;;;;;;;21.50;4.50;;;;;;;11.61;100.00;101266.84;5063194;28;20108;-66
2023/08/07 03:36:30;;;;;;;20.23;4.80;;;;;;;11.58;100.00;101274.78;5064282;28;20021;-66
2023/08/07 03:38:55;;;;;;;19.80;4.53;;;;;;;11.61;100.00;101272.16;5060822;28;20432;-66
2023/08/07 03:41:21;;;;;;;21.30;4.40;;;;;;;11.62;100.00;101273.88;5065097;28;20040;-66
2023/08/07 03:43:46;;;;;;;19.15;4.60;;;;;;;11.62;100.00;101264.22;5062180;28;20032;-66
2023/08/07 03:46:13;;;;;;;19.98;4.47;;;;;;;11.63;100.00;101265.97;5063448;28;20037;-75
2023/08/07 03:48:38;;;;;;;21.65;4.65;;;;;;;11.63;100.00;101265.09;5062902;28;20039;-66
2023/08/07 03:51:10;;;;;;;18.58;4.43;;;;;;;11.69;100.00;101265.13;5062878;28;20383;-67
2023/08/07 03:53:36;;;;;;;22.63;4.88;;;;;;;11.68;100.00;101264.25;5063473;28;20078;-66
2023/08/07 03:56:02;;;;;;;21.10;4.82;;;;;;;11.72;100.00;101266.91;5062375;28;20036;-66
2023/08/07 03:58:28;;;;;;;19.77;4.63;;;;;;;11.74;100.00;101259.88;5064569;28;20024;-66
2023/08/07 04:00:53;;;;;;;21.13;4.82;;;;;;;11.83;100.00;101263.44;5061552;28;20037;-66
2023/08/07 04:03:19;;;;;;;20.08;4.68;;;;;;;11.88;100.00;101259.94;5064430;28;20468;-67
2023/08/07 04:05:45;;;;;;;18.77;4.68;;;;;;;11.95;100.00;101269.72;5062022;28;20484;-66
2023/08/07 04:08:10;;;;;;;22.58;4.63;;;;;;;11.98;100.00;101267.09;5063272;28;20029;-66
2023/08/07 04:10:36;;;;;;;19.73;4.57;;;;;;;12.03;100.00;101265.38;5063002;28;20442;-66
2023/08/07 04:13:01;;;;;;;19.92;4.30;;;;;;;12.02;100.00;101269.75;5062183;28;20380;-68
2023/08/07 04:15:26;;;;;;;20.58;4.55;;;;;;;12.09;100.00;101264.50;5064348;28;20494;-66
2023/08/07 04:17:52;;;;;;;20.42;4.60;;;;;;;11.98;100.00;101261.78;5061084;28;20394;-67
2023/08/07 04:20:17;;;;;;;18.85;4.05;;;;;;;12.08;100.00;101257.44;5064305;28;20111;-67
2023/08/07 04:22:44;;;;;;;20.38;4.82;;;;;;;12.07;100.00;101268.91;5061917;28;20364;-66
2023/08/07 04:25:10;;;;;;;20.08;4.07;;;;;;;12.11;100.00;101262.75;5062837;28;20080;-83
2023/08/07 04:27:35;;;;;;;20.45;4.20;;;;;;;12.03;100.00;101273.31;5063050;28;20415;-66
2023/08/07 04:30:00;;;;;;;20.10;4.35;;;;;;;12.02;100.00;101268.88;5061508;28;20032;-66
2023/08/07 04:32:26;;;;;;;19.13;4.10;;;;;;;12.07;100.00;101267.13;5064174;28;20108;-82
2023/08/07 04:34:51;;;;;;;18.13;4.13;;;;;;;12.08;100.00;101268.91;5061027;28;20066;-83
2023/08/07 04:37:16;;;;;;;19.10;4.32;;;;;;;12.12;100.00;101273.34;5063839;28;20032;-66
2023/08/07 04:39:42;;;;;;;20.33;4.13;;;;;;;12.02;100.00;101282.13;5062130;28;20025;-66
2023/08/07 04:42:07;;;;;;;17.70;3.92;;;;;;;11.96;100.00;101284.75;5062399;28;20040;-66
2023/08/07 04:44:32;;;;;;;18.85;4.10;;;;;;;11.98;100.00;101282.97;5062036;28;20108;-66
2023/08/07 04:46:58;;;;;;;18.27;4.00;;;;;;;12.06;100.00;101285.66;5061181;28;20027;-66
2023/08/07 04:49:23;;;;;;;15.88;3.75;;;;;;;12.08;100.00;101283.94;5062961;28;20060;-66
2023/08/07 04:51:48;;;;;;;18.73;3.92;;;;;;;12.06;100.00;101275.97;5060913;28;20037;-66
2023/08/07 04:54:14;;;;;;;17.67;3.83;;;;;;;12.03;100.00;101268.00;5063361;28;20095;-66
2023/08/07 04:56:40;;;;;;;16.80;3.60;;;;;;;12.09;100.00;101277.75;5062237;28;20068;-66
2023/08/07 04:59:05;;;;;;;18.52;3.75;;;;;;;12.17;100.00;101287.53;5063911;28;20037;-67
2023/08/07 05:01:31;;;;;;;17.65;3.67;;;;;;;12.18;100.00;101283.97;5067545;28;20490;-82
2023/08/07 05:03:57;;;;;;;16.98;3.70;;;;;;;12.19;100.00;101280.44;5064795;28;20029;-83
2023/08/07 05:06:23;;;;;;;18.00;3.83;;;;;;;12.26;100.00;101289.31;5068004;28;20108;-82
2023/08/07 05:08:48;;;;;;;15.02;3.33;;;;;;;12.21;100.00;101286.63;5064951;28;20119;-66
2023/08/07 05:11:13;;;;;;;15.73;3.42;;;;;;;12.31;100.00;101286.69;5066894;28;20033;-66
2023/08/07 05:13:39;;;;;;;16.00;3.30;;;;;;;12.29;100.00;101288.44;5066002;28;20487;-67
2023/08/07 05:16:04;;;;;;;17.30;3.65;;;;;;;12.25;100.00;101286.66;5065842;28;20024;-66
2023/08/07 05:18:29;;;;;;;15.27;3.30;;;;;;;12.27;100.00;101300.81;5067185;28;20062;-66
2023/08/07 05:20:55;;;;;;;17.75;3.63;;;;;;;12.30;100.00;101295.50;5064567;28;20100;-69
2023/08/07 05:23:20;;;;;;;17.73;3.47;;;;;;;12.27;100.00;101292.84;5067849;28;20032;-75
2023/08/07 05:25:47;;;;;;;16.60;3.85;;;;;;;12.26;100.00;101297.28;5064955;28;20361;-75
2023/08/07 05:28:12;;;;;;;17.65;3.60;;;;;;;12.27;100.00;101298.16;5065228;28;20036;-66
2023/08/07 05:30:37;;;;;;;19.10;3.60;;;;;;;12.24;100.00;101303.44;5065825;28;20024;-67
2023/08/07 05:33:03;;;;;;;15.90;3.50;;;;;;;12.27;100.00;101308.75;5065028;28;20029;-66
2023/08/07 05:35:28;;;;;;;17.67;3.60;;;;;;;12.24;100.00;101311.41;5067342;28;20493;-67
2023/08/07 05:37:53;;;;;;;19.02;3.95;;;;;;;12.23;100.00;101314.91;5063973;28;20496;-75
2023/08/07 05:40:19;;;;;;;17.42;3.70;;;;;;;12.27;100.00;101317.59;5067071;28;20024;-74
2023/08/07 05:42:44;;;;;;;16.80;3.60;;;;;;;12.29;100.00;101312.28;5065008;28;20094;-66
2023/08/07 05:45:10;;;;;;;17.15;3.85;;;;;;;12.28;100.00;101324.66;5065667;28;20036;-66
2023/08/07 05:47:36;;;;;;;17.15;3.80;;;;;;;12.36;100.00;101330.00;5065923;28;20033;-66
2023/08/07 05:50:01;;;;;;;16.77;3.75;;;;;;;12.30;100.00;101332.63;5064703;28;20086;-66
2023/08/07 05:52:27;;;;;;;18.70;4.30;;;;;;;12.32;100.00;101352.06;5066973;28;20025;-66
2023/08/07 05:54:52;;;;;;;18.30;3.97;;;;;;;12.29;100.00;101342.34;5064148;28;20033;-75
2023/08/07 05:57:18;;;;;;;18.50;3.90;;;;;;;12.35;100.00;101338.84;5065324;28;20047;-66
2023/08/07 05:59:44;;;;;;;17.15;3.83;;;;;;;12.38;100.00;101347.69;5064582;28;20028;-66
2023/08/07 06:02:11;;;;;;;20.88;4.07;;;;;;;12.41;100.00;101333.56;5065484;28;20020;-67
2023/08/07 06:04:37;;;;;;;16.67;3.70;;;;;;;12.43;100.00;101344.19;5065467;28;20028;-73
2023/08/07 06:07:03;;;;;;;19.63;3.90;;;;;;;12.44;100.00;101349.50;5064370;28;20387;-84
2023/08/07 06:09:28;;;;;;;18.90;3.90;;;;;;;12.47;100.00;101344.19;5066159;28;20040;-81
2023/08/07 06:11:53;;;;;;;18.15;4.03;;;;;;;12.49;100.00;101349.50;5063420;28;20028;-74
2023/08/07 06:14:19;;;;;;;17.83;3.75;;;;;;;12.61;100.00;101346.00;5065093;28;20086;-84
2023/08/07 06:16:44;;;;;;;18.08;3.80;;;;;;;12.65;100.00;101348.69;5064389;28;20103;-78
2023/08/07 06:19:09;;;;;;;18.67;3.60;;;;;;;12.67;100.00;101343.41;5065120;28;20361;-81
2023/08/07 06:21:35;;;;;;;19.88;3.70;;;;;;;12.81;100.00;101335.47;5065405;28;20028;-75
2023/08/07 06:24:01;;;;;;;19.75;3.95;;;;;;;12.93;100.00;101340.84;5063757;28;20459;-67
2023/08/07 06:26:26;;;;;;;16.80;3.55;;;;;;;13.14;100.00;101349.72;5066622;28;20028;-70
2023/08/07 06:28:51;;;;;;;16.55;3.40;;;;;;;13.28;100.00;101347.06;5058769;28;20062;-82
2023/08/07 06:31:18;;;;;;;18.85;3.50;;;;;;;13.32;100.00;101349.72;5066035;28;20032;-73
2023/08/07 06:33:43;;;;;;;18.98;3.40;;;;;;;13.41;100.00;101359.50;5063980;28;20025;-84
2023/08/07 06:36:08;;;;;;;17.23;3.47;;;;;;;13.52;100.00;101367.50;5064583;28;20036;-67
2023/08/07 06:38:34;;;;;;;17.85;3.22;;;;;;;13.56;100.00;101364.84;5065508;28;20495;-80
2023/08/07 06:40:59;;;;;;;17.63;3.20;;;;;;;13.64;100.00;101370.13;5063134;28;20460;-67
2023/08/07 06:43:25;;;;;;;18.20;3.40;;;;;;;13.68;100.00;101368.38;5066527;28;20120;-78
2023/08/07 06:45:51;;;;;;;16.63;3.30;;;;;;;13.68;100.00;101374.56;5063156;28;20033;-69
2023/08/07 06:48:17;;;;;;;17.13;3.20;;;;;;;13.59;100.00;101374.59;5065298;28;20391;-83
2023/08/07 06:50:43;;;;;;;20.05;3.70;;;;;;;13.59;100.00;101375.44;5064077;28;20025;-84
2023/08/07 06:53:08;;;;;;;19.00;3.50;;;;;;;13.67;100.00;101366.59;5064288;28;20170;-66
2023/08/07 06:55:33;;;;;;;16.92;3.53;;;;;;;13.63;100.00;101364.81;5065052;28;20025;-84
2023/08/07 06:57:59;;;;;;;19.55;3.08;;;;;;;13.62;100.00;101379.00;5063055;28;20143;-66
2023/08/07 07:00:25;;;;;;;17.50;3.28;;;;;;;13.63;100.00;101375.44;5065939;28;20063;-67
2023/08/07 07:02:50;;;;;;;15.15;3.28;;;;;;;13.84;100.00;101380.75;5062578;28;20033;-67
2023/08/07 07:05:16;;;;;;;18.13;3.25;;;;;;;14.00;100.00;101365.69;5065065;28;20052;-66
2023/08/07 07:07:41;;;;;;;16.50;3.30;;;;;;;14.04;100.00;101382.53;5063771;28;20031;-74
2023/08/07 07:10:07;;;;;;;19.20;3.25;;;;;;;13.90;100.00;101391.38;5063592;28;20387;-67
2023/08/07 07:12:32;;;;;;;20.10;3.75;;;;;;;13.92;100.00;101386.97;5065339;28;20463;-66
2023/08/07 07:14:58;;;;;;;15.00;3.00;;;;;;;14.05;100.00;101384.28;5062290;28;20110;-66
2023/08/07 07:17:23;;;;;;;16.10;3.42;;;;;;;14.18;100.00;101396.66;5065535;28;20055;-67
2023/08/07 07:19:48;;;;;;;18.17;3.20;;;;;;;14.24;100.00;101404.66;5062901;28;20029;-67
2023/08/07 07:22:14;;;;;;;18.20;3.30;;;;;;;14.37;100.00;101404.59;5063525;28;20108;-67
2023/08/07 07:24:39;;;;;;;18.65;3.33;;;;;;;14.41;100.00;101404.59;5063699;28;20044;-67
2023/08/07 07:27:05;;;;;;;18.35;3.40;;;;;;;14.33;100.00;101419.69;5061783;28;20029;-66
2023/08/07 07:29:30;;;;;;;17.35;3.30;;;;;;;14.27;100.00;101417.94;5064942;28;20032;-66
2023/08/07 07:31:56;;;;;;;18.60;3.47;;;;;;;14.27;100.00;101415.28;5062000;28;20049;-69
2023/08/07 07:34:21;;;;;;;16.80;3.28;;;;;;;14.26;100.00;101425.91;5065119;28;20024;-67
2023/08/07 07:36:47;;;;;;;18.55;3.03;;;;;;;14.32;100.00;101419.72;5062405;28;20116;-67
2023/08/07 07:39:12;;;;;;;17.50;3.40;;;;;;;14.41;100.00;101417.88;5064207;28;20556;-66
2023/08/07 07:41:38;;;;;;;17.42;3.40;;;;;;;14.60;100.00;101424.03;5063613;28;20036;-67
2023/08/07 07:44:03;;;;;;;19.95;3.42;;;;;;;14.69;100.00;101425.81;5062357;28;20036;-67
2023/08/07 07:46:29;;;;;;;17.23;3.10;;;;;;;14.86;100.00;101424.88;5065004;28;20052;-66
2023/08/07 07:48:56;;;;;;;18.67;3.22;;;;;;;14.93;100.00;101443.47;5061465;28;20068;-71
2023/08/07 07:51:21;;;;;;;17.63;3.55;;;;;;;14.86;100.00;101436.41;5064799;28;20446;-66
2023/08/07 07:53:47;;;;;;;15.63;3.47;;;;;;;14.71;100.00;101442.69;5062293;28;20064;-66
2023/08/07 07:56:12;;;;;;;15.77;3.22;;;;;;;14.55;100.00;101441.81;5063427;28;20399;-76
2023/08/07 07:58:38;;;;;;;16.55;3.10;;;;;;;14.46;100.00;101447.16;5063354;28;20482;-67
2023/08/07 08:01:03;;;;;;;16.92;3.53;;;;;;;14.58;100.00;101449.78;5062291;28;20033;-66
2023/08/07 08:03:28;;;;;;;17.27;3.30;;;;;;;14.81;100.00;101440.88;5064521;28;20486;-66
2023/08/07 08:05:54;;;;;;;18.83;3.47;;;;;;;14.90;100.00;101446.16;5061417;28;20025;-66
2023/08/07 08:08:19;;;;;;;18.75;3.30;;;;;;;14.91;100.00;101447.94;5064105;28;20054;-67
2023/08/07 08:10:47;;;;;;;16.55;3.20;;;;;;;14.93;100.00;101454.13;5062227;28;20471;-66
2023/08/07 08:13:13;;;;;;;14.48;3.10;;;;;;;14.80;100.00;101447.97;5063333;28;20033;-70
2023/08/07 08:15:38;;;;;;;17.45;3.20;;;;;;;14.72;100.00;101452.44;5063000;28;20151;-66
2023/08/07 08:18:04;;;;;;;18.05;3.28;;;;;;;14.79;100.00;101456.84;5062000;28;20480;-70
2023/08/07 08:20:31;;;;;;;16.67;3.35;;;;;;;14.95;100.00;101460.31;5064420;28;20158;-79
2023/08/07 08:22:56;;;;;;;18.45;3.50;;;;;;;15.23;100.00;101459.31;5060996;28;20036;-68
2023/08/07 08:25:22;;;;;;;14.65;3.30;;;;;;;15.51;100.00;101454.72;5064084;28;20057;-81
2023/08/07 08:27:47;;;;;;;17.65;3.05;;;;;;;15.92;100.00;101455.38;5061763;28;20387;-67
2023/08/07 08:30:12;;;;;;;18.10;3.17;;;;;;;16.59;100.00;101458.28;5062823;28;20384;-67
2023/08/07 08:32:39;;;;;;;17.15;2.97;;;;;;;17.27;100.00;101444.09;5061460;28;20029;-67
2023/08/07 08:35:05;;;;;;;17.67;3.10;;;;;;;17.83;100.00;101463.75;5062021;28;20135;-69
2023/08/07 08:37:31;;;;;;;15.52;2.90;;;;;;;17.35;100.00;101458.25;5063946;28;20031;-85
2023/08/07 08:39:56;;;;;;;16.10;3.10;;;;;;;17.14;100.00;101448.72;5060905;28;20033;-78
2023/08/07 08:42:22;;;;;;;12.05;2.55;;;;;;;16.71;100.00;101464.34;5064282;28;20531;-73
2023/08/07 08:44:56;;;;;;;14.48;2.90;;;;;;;17.01;100.00;101456.91;5061711;28;20543;-81
2023/08/07 08:47:22;;;;;;;16.38;3.00;;;;;;;17.35;100.00;101451.13;5063956;28;20025;-85
2023/08/07 08:49:54;;;;;;;14.80;2.92;;;;;;;17.60;100.00;101457.00;5061535;28;20043;-68
2023/08/07 08:52:20;;;;;;;11.15;2.60;;;;;;;18.15;100.00;101467.72;5063706;28;20479;-71
2023/08/07 08:54:47;;;;;;;12.63;2.65;;;;;;;18.74;100.00;101463.97;5061609;28;20037;-80
2023/08/07 08:57:13;;;;;;;14.07;2.55;;;;;;;18.26;100.00;101472.88;5062832;28;20025;-82
2023/08/07 08:59:39;;;;;;;13.55;2.67;;;;;;;18.20;100.00;101473.00;5062642;28;20035;-67
2023/08/07 09:02:06;;;;;;;14.77;2.70;;;;;;;18.58;100.00;101472.31;5061829;28;20364;-68
2023/08/07 09:04:32;;;;;;;15.00;3.38;;;;;;;18.46;100.00;101473.44;5063645;28;20391;-67
2023/08/07 09:06:57;;;;;;;15.98;2.72;;;;;;;18.42;100.00;101469.03;5060597;28;20029;-75
2023/08/07 09:09:23;;;;;;;14.48;2.88;;;;;;;18.55;100.00;101461.66;5064146;28;20044;-66
2023/08/07 09:11:51;;;;;;;13.20;2.83;;;;;;;18.51;100.00;101480.47;5061282;28;20488;-67
2023/08/07 09:14:20;;;;;;;13.27;2.58;;;;;;;18.02;100.00;101483.09;5062884;28;20029;-67
2023/08/07 09:16:48;;;;;;;13.60;2.80;;;;;;;17.46;100.00;101491.06;5061517;28;20039;-70
2023/08/07 09:19:13;;;;;;;11.02;2.40;;;;;;;17.49;100.00;101485.66;5062758;28;20033;-75
2023/08/07 09:21:39;;;;;;;12.25;2.58;;;;;;;17.48;100.00;101493.72;5062353;28;20027;-67
2023/08/07 09:24:04;;;;;;;12.40;2.70;;;;;;;17.82;100.00;101482.50;5061057;28;20107;-67
2023/08/07 09:26:33;;;;;;;11.20;2.55;;;;;;;18.22;100.00;101489.91;5063878;28;20024;-75
2023/08/07 09:28:59;;;;;;;14.63;2.70;;;;;;;18.69;100.00;101493.50;5060221;28;20033;-78
2023/08/07 09:31:28;;;;;;;11.80;2.78;;;;;;;19.36;100.00;101484.16;5063934;28;20374;-67
2023/08/07 09:34:02;;;;;;;12.30;2.80;;;;;;;19.96;100.00;101501.56;5059362;28;20029;-74
2023/08/07 09:36:30;;;;;;;12.85;2.50;;;;;;;19.96;80.82;101485.47;5055825;28;20055;-74
2023/08/07 09:38:55;;;;;;;11.80;2.67;;;;;;;19.56;89.72;101494.44;5056405;28;20196;-67
2023/08/07 09:41:21;;;;;;;10.57;2.42;;;;;;;20.23;87.37;101500.00;5063273;28;20460;-70
2023/08/07 09:43:47;;;;;;;13.02;2.80;;;;;;;21.35;76.32;101497.81;5061296;28;20062;-79
2023/08/07 09:46:12;;;;;;;12.77;2.60;;;;;;;22.24;65.79;101477.94;5065403;28;20029;-75
2023/08/07 09:48:42;;;;;;;12.60;2.50;;;;;;;22.44;63.26;101475.47;5066006;28;20039;-67
2023/08/07 09:51:08;;;;;;;11.27;2.47;;;;;;;22.21;58.37;101499.59;5065154;28;20503;-81
2023/08/07 09:53:33;;;;;;;10.15;2.30;;;;;;;21.53;57.55;101499.09;5066535;28;20032;-85
2023/08/07 09:55:59;;;;;;;12.18;2.60;;;;;;;20.60;64.06;101515.13;5063711;28;20028;-76
2023/08/07 09:58:24;;;;;;;12.68;2.60;;;;;;;21.90;62.70;101516.72;5059779;28;20052;-70
2023/08/07 10:00:53;;;;;;;9.77;2.33;;;;;;;21.83;60.34;101516.06;5066571;28;20063;-84
2023/08/07 10:03:19;;;;;;;11.63;2.47;;;;;;;20.61;61.50;101516.03;5064252;28;20029;-68
2023/08/07 10:05:45;;;;;;;13.20;2.50;;;;;;;20.26;64.19;101521.38;5065868;28;20376;-85
2023/08/07 10:08:11;;;;;;;11.35;2.60;;;;;;;20.44;70.80;101516.47;5065231;28;20063;-69
2023/08/07 10:10:38;;;;;;;10.02;2.53;;;;;;;19.62;72.41;101513.06;5064925;28;20430;-85
2023/08/07 10:13:04;;;;;;;12.27;2.60;;;;;;;18.86;74.73;101519.06;5066419;28;20105;-81
2023/08/07 10:15:31;;;;;;;10.27;2.50;;;;;;;20.08;68.16;101528.09;5063606;28;20033;-67
2023/08/07 10:17:57;;;;;;;11.15;2.55;;;;;;;21.18;61.96;101539.50;5067218;28;20504;-73
2023/08/07 10:20:26;;;;;;;11.75;2.50;;;;;;;21.62;59.63;101522.13;5062267;28;20040;-86
2023/08/07 10:22:52;;;;;;;8.70;2.65;;;;;;;22.17;56.24;101531.09;5066274;28;20032;-84
2023/08/07 10:25:21;;;;;;;10.30;2.22;;;;;;;23.04;54.68;101538.88;5064016;28;20523;-85
2023/08/07 10:27:49;;;;;;;7.88;2.30;;;;;;;24.15;50.18;101526.53;5065598;28;20029;-83
2023/08/07 10:30:18;;;;;;;11.70;2.50;;;;;;;22.72;52.16;101538.25;5064315;28;20029;-77
2023/08/07 10:32:44;;;;;;;8.20;2.30;;;;;;;21.46;51.28;101540.50;5064930;28;20130;-72
2023/08/07 10:35:09;;;;;;;9.23;2.53;;;;;;;21.42;55.21;101537.00;5065144;28;20024;-85
2023/08/07 10:37:38;;;;;;;10.90;2.40;;;;;;;23.19;54.74;101549.13;5063854;28;20094;-67
2023/08/07 10:40:04;;;;;;;8.18;2.33;;;;;;;24.19;47.85;101541.66;5065791;28;20063;-78
2023/08/07 10:42:51;;;;;;;9.32;2.50;;;;;;;24.82;49.54;101554.31;5062975;28;20039;-69
2023/08/07 10:45:18;;;;;;;9.98;2.50;;;;;;;25.21;49.16;101551.63;5063986;28;20025;-85
2023/08/07 10:47:43;;;;;;;8.52;2.50;;;;;;;25.91;48.78;101551.94;5064747;28;20025;-67
2023/08/07 10:50:09;;;;;;;9.40;2.70;;;;;;;24.52;48.62;101547.44;5064746;28;20029;-76
2023/08/07 10:52:39;;;;;;;12.30;2.60;;;;;;;22.65;49.78;101552.88;5063631;28;20515;-67
2023/08/07 10:55:13;;;;;;;12.02;2.58;;;;;;;21.02;55.41;101548.94;5065163;28;20020;-66
2023/08/07 10:57:40;;;;;;;13.82;2.80;;;;;;;21.74;55.78;101549.53;5063002;28;20032;-67
2023/08/07 11:00:07;;;;;;;12.50;2.67;;;;;;;21.38;57.25;101551.50;5065218;28;20028;-66
2023/08/07 11:02:39;;;;;;;9.23;2.42;;;;;;;22.76;54.47;101548.88;5063125;28;20064;-74
2023/08/07 11:05:05;;;;;;;12.25;2.75;;;;;;;24.21;49.88;101547.84;5065135;28;20134;-70
2023/08/07 11:07:31;;;;;;;11.45;2.60;;;;;;;24.70;47.18;101559.28;5062458;28;20033;-67